CheckWX is a tool to help pilots better visualize weather data.  It is not intended as a substitute for an official pre-flight weather briefing.

15:10:53 UTC

BKPR TAF
Priština International Airport
Prishtina, Kosovo
TAF BKPR 231130Z 2312/2412 01012KT CAVOK BECMG 2320/2322 VRB03KT

Mar-23@
12:00 UTC

Mar-23 @ 12:00 UTC

Mar-23@
20:00 UTC

Mar-23 @ 20:00 UTC

TAF BKPR 231130Z 2312/2412 01012KT CAVOK
Wind
  • 010° at 12 KTS
Conditions
No significant weather
Cloud Levels
  • No significant clouds

Mar-23@
20:00 UTC

Mar-23 @ 20:00 UTC

Mar-24@
12:00 UTC

Mar-24 @ 12:00 UTC

BECMG 2320/2322 VRB03KT

Becoming

Becoming Conditions expected by Sat, Mar 23, 2019 @ 22:00 UTC

Wind
  • Variable at 3 KTS
Conditions
No significant weather
Cloud Levels
  • No significant clouds